sensor_id;sensor_type;location;lat;lon;timestamp;P1;durP1;ratioP1;P2;durP2;ratioP2
7747;SDS011;3918;42.564;23.164;2023-04-08T04:01:25;9.77;;;5.63;;
7747;SDS011;3918;42.564;23.164;2023-04-08T04:03:51;4.65;;;3.95;;
7747;SDS011;3918;42.564;23.164;2023-04-08T04:06:18;5.07;;;4.03;;
7747;SDS011;3918;42.564;23.164;2023-04-08T04:08:45;5.10;;;3.55;;
7747;SDS011;3918;42.564;23.164;2023-04-08T04:11:12;5.25;;;3.35;;
7747;SDS011;3918;42.564;23.164;2023-04-08T04:13:38;5.32;;;3.75;;
7747;SDS011;3918;42.564;23.164;2023-04-08T04:16:05;10.38;;;4.18;;
7747;SDS011;3918;42.564;23.164;2023-04-08T04:18:34;4.75;;;3.90;;
7747;SDS011;3918;42.564;23.164;2023-04-08T04:21:03;6.72;;;4.53;;
7747;SDS011;3918;42.564;23.164;2023-04-08T04:23:31;5.47;;;4.28;;
7747;SDS011;3918;42.564;23.164;2023-04-08T04:25:58;4.30;;;3.90;;
7747;SDS011;3918;42.564;23.164;2023-04-08T04:28:25;5.53;;;4.60;;
7747;SDS011;3918;42.564;23.164;2023-04-08T04:30:52;7.50;;;4.30;;
7747;SDS011;3918;42.564;23.164;2023-04-08T04:33:18;8.05;;;5.10;;
7747;SDS011;3918;42.564;23.164;2023-04-08T04:35:47;8.75;;;4.85;;
7747;SDS011;3918;42.564;23.164;2023-04-08T04:38:14;10.82;;;5.30;;
7747;SDS011;3918;42.564;23.164;2023-04-08T04:40:41;10.90;;;5.10;;
7747;SDS011;3918;42.564;23.164;2023-04-08T04:43:08;6.50;;;5.30;;
7747;SDS011;3918;42.564;23.164;2023-04-08T04:45:35;8.07;;;4.57;;
7747;SDS011;3918;42.564;23.164;2023-04-08T04:48:02;7.00;;;5.32;;
7747;SDS011;3918;42.564;23.164;2023-04-08T04:50:29;7.72;;;5.03;;
7747;SDS011;3918;42.564;23.164;2023-04-08T04:52:57;6.00;;;5.10;;
7747;SDS011;3918;42.564;23.164;2023-04-08T04:55:24;8.52;;;4.88;;
7747;SDS011;3918;42.564;23.164;2023-04-08T04:57:50;7.85;;;5.03;;
7747;SDS011;3918;42.564;23.164;2023-04-08T05:00:17;21.88;;;6.00;;
7747;SDS011;3918;42.564;23.164;2023-04-08T05:02:44;5.63;;;4.38;;
7747;SDS011;3918;42.564;23.164;2023-04-08T05:05:11;11.55;;;5.07;;
7747;SDS011;3918;42.564;23.164;2023-04-08T05:07:38;6.75;;;4.93;;
7747;SDS011;3918;42.564;23.164;2023-04-08T05:10:06;10.43;;;5.60;;
7747;SDS011;3918;42.564;23.164;2023-04-08T05:12:35;7.13;;;4.95;;
7747;SDS011;3918;42.564;23.164;2023-04-08T05:15:02;7.07;;;5.20;;
7747;SDS011;3918;42.564;23.164;2023-04-08T05:17:30;9.70;;;5.40;;
7747;SDS011;3918;42.564;23.164;2023-04-08T05:19:57;12.40;;;6.30;;
7747;SDS011;3918;42.564;23.164;2023-04-08T05:22:24;6.72;;;4.97;;
7747;SDS011;3918;42.564;23.164;2023-04-08T05:24:51;8.45;;;5.13;;
7747;SDS011;3918;42.564;23.164;2023-04-08T05:27:19;42.22;;;7.45;;
7747;SDS011;3918;42.564;23.164;2023-04-08T05:29:46;11.07;;;5.78;;
7747;SDS011;3918;42.564;23.164;2023-04-08T05:32:13;11.57;;;5.45;;
7747;SDS011;3918;42.564;23.164;2023-04-08T05:34:41;6.47;;;5.22;;
7747;SDS011;3918;42.564;23.164;2023-04-08T05:37:07;6.97;;;5.30;;
7747;SDS011;3918;42.564;23.164;2023-04-08T05:39:34;8.75;;;5.90;;
7747;SDS011;3918;42.564;23.164;2023-04-08T05:42:01;6.82;;;5.22;;
7747;SDS011;3918;42.564;23.164;2023-04-08T05:44:29;12.05;;;5.38;;
7747;SDS011;3918;42.564;23.164;2023-04-08T05:46:56;7.47;;;5.43;;
7747;SDS011;3918;42.564;23.164;2023-04-08T05:49:24;9.80;;;5.70;;
7747;SDS011;3918;42.564;23.164;2023-04-08T05:51:51;11.60;;;5.80;;
7747;SDS011;3918;42.564;23.164;2023-04-08T05:54:18;9.48;;;6.30;;
7747;SDS011;3918;42.564;23.164;2023-04-08T05:56:44;12.75;;;6.22;;
7747;SDS011;3918;42.564;23.164;2023-04-08T05:59:12;9.93;;;6.80;;
7747;SDS011;3918;42.564;23.164;2023-04-08T06:01:41;10.68;;;5.60;;
7747;SDS011;3918;42.564;23.164;2023-04-08T06:04:08;10.30;;;5.55;;
7747;SDS011;3918;42.564;23.164;2023-04-08T06:06:36;8.02;;;6.18;;
7747;SDS011;3918;42.564;23.164;2023-04-08T06:09:03;13.75;;;5.32;;
7747;SDS011;3918;42.564;23.164;2023-04-08T06:11:29;7.85;;;5.32;;
7747;SDS011;3918;42.564;23.164;2023-04-08T06:13:56;6.93;;;5.25;;
7747;SDS011;3918;42.564;23.164;2023-04-08T06:16:23;10.13;;;5.35;;
7747;SDS011;3918;42.564;23.164;2023-04-08T06:18:52;6.95;;;4.95;;
7747;SDS011;3918;42.564;23.164;2023-04-08T06:21:18;6.70;;;5.18;;
7747;SDS011;3918;42.564;23.164;2023-04-08T06:23:46;8.25;;;5.22;;
7747;SDS011;3918;42.564;23.164;2023-04-08T06:26:13;6.47;;;5.47;;
7747;SDS011;3918;42.564;23.164;2023-04-08T06:28:40;5.50;;;4.85;;
7747;SDS011;3918;42.564;23.164;2023-04-08T06:31:07;7.93;;;5.22;;
7747;SDS011;3918;42.564;23.164;2023-04-08T06:33:33;8.60;;;5.63;;
7747;SDS011;3918;42.564;23.164;2023-04-08T06:36:02;5.40;;;4.90;;
7747;SDS011;3918;42.564;23.164;2023-04-08T06:38:30;10.35;;;5.40;;
7747;SDS011;3918;42.564;23.164;2023-04-08T06:41:00;8.02;;;6.03;;
7747;SDS011;3918;42.564;23.164;2023-04-08T06:43:28;12.00;;;5.97;;
7747;SDS011;3918;42.564;23.164;2023-04-08T06:45:55;20.45;;;6.55;;
7747;SDS011;3918;42.564;23.164;2023-04-08T06:48:22;8.50;;;6.05;;
7747;SDS011;3918;42.564;23.164;2023-04-08T06:50:52;11.15;;;5.30;;
7747;SDS011;3918;42.564;23.164;2023-04-08T06:53:22;19.38;;;5.50;;
7747;SDS011;3918;42.564;23.164;2023-04-08T06:55:49;9.77;;;5.43;;
7747;SDS011;3918;42.564;23.164;2023-04-08T06:58:16;8.13;;;5.15;;
7747;SDS011;3918;42.564;23.164;2023-04-08T07:00:43;10.73;;;4.95;;
7747;SDS011;3918;42.564;23.164;2023-04-08T07:03:10;20.75;;;6.00;;
7747;SDS011;3918;42.564;23.164;2023-04-08T07:05:37;26.00;;;6.05;;
7747;SDS011;3918;42.564;23.164;2023-04-08T07:08:06;45.10;;;7.53;;
7747;SDS011;3918;42.564;23.164;2023-04-08T07:10:34;23.55;;;6.32;;
7747;SDS011;3918;42.564;23.164;2023-04-08T07:13:01;7.78;;;5.97;;
7747;SDS011;3918;42.564;23.164;2023-04-08T07:15:28;17.15;;;5.35;;
7747;SDS011;3918;42.564;23.164;2023-04-08T07:17:55;25.08;;;5.70;;
7747;SDS011;3918;42.564;23.164;2023-04-08T07:20:22;13.25;;;5.80;;
7747;SDS011;3918;42.564;23.164;2023-04-08T07:22:50;8.68;;;5.45;;
7747;SDS011;3918;42.564;23.164;2023-04-08T07:25:17;9.52;;;5.53;;
7747;SDS011;3918;42.564;23.164;2023-04-08T07:27:45;31.48;;;5.78;;
7747;SDS011;3918;42.564;23.164;2023-04-08T07:30:12;9.10;;;6.00;;
7747;SDS011;3918;42.564;23.164;2023-04-08T07:32:39;11.18;;;5.68;;
7747;SDS011;3918;42.564;23.164;2023-04-08T07:35:06;26.98;;;6.38;;
7747;SDS011;3918;42.564;23.164;2023-04-08T07:37:33;10.13;;;5.15;;
7747;SDS011;3918;42.564;23.164;2023-04-08T07:40:00;12.57;;;5.70;;
7747;SDS011;3918;42.564;23.164;2023-04-08T07:42:27;13.38;;;6.25;;
7747;SDS011;3918;42.564;23.164;2023-04-08T07:44:55;13.55;;;5.82;;
7747;SDS011;3918;42.564;23.164;2023-04-08T07:47:21;8.65;;;5.43;;
7747;SDS011;3918;42.564;23.164;2023-04-08T07:49:48;6.13;;;5.10;;
7747;SDS011;3918;42.564;23.164;2023-04-08T07:52:15;7.90;;;5.47;;
7747;SDS011;3918;42.564;23.164;2023-04-08T07:54:42;8.57;;;5.30;;
7747;SDS011;3918;42.564;23.164;2023-04-08T07:57:09;31.42;;;6.07;;
7747;SDS011;3918;42.564;23.164;2023-04-08T07:59:36;6.15;;;5.03;;
7747;SDS011;3918;42.564;23.164;2023-04-08T08:02:04;6.28;;;5.40;;
7747;SDS011;3918;42.564;23.164;2023-04-08T08:04:32;10.63;;;5.60;;
7747;SDS011;3918;42.564;23.164;2023-04-08T08:06:59;10.45;;;5.30;;
7747;SDS011;3918;42.564;23.164;2023-04-08T08:09:25;5.40;;;4.90;;
7747;SDS011;3918;42.564;23.164;2023-04-08T08:11:52;20.20;;;5.68;;
7747;SDS011;3918;42.564;23.164;2023-04-08T08:14:19;125.10;;;9.95;;
7747;SDS011;3918;42.564;23.164;2023-04-08T08:16:46;21.50;;;5.90;;
7747;SDS011;3918;42.564;23.164;2023-04-08T08:19:15;8.63;;;5.30;;
7747;SDS011;3918;42.564;23.164;2023-04-08T08:21:42;14.43;;;5.95;;
7747;SDS011;3918;42.564;23.164;2023-04-08T08:24:08;29.00;;;7.47;;
7747;SDS011;3918;42.564;23.164;2023-04-08T08:26:35;8.60;;;5.25;;
7747;SDS011;3918;42.564;23.164;2023-04-08T08:29:02;19.85;;;5.35;;
7747;SDS011;3918;42.564;23.164;2023-04-08T08:31:29;7.15;;;4.97;;
7747;SDS011;3918;42.564;23.164;2023-04-08T08:33:56;15.60;;;6.78;;
7747;SDS011;3918;42.564;23.164;2023-04-08T08:36:24;7.50;;;5.20;;
7747;SDS011;3918;42.564;23.164;2023-04-08T08:38:52;9.57;;;4.93;;
7747;SDS011;3918;42.564;23.164;2023-04-08T08:41:19;23.55;;;5.45;;
7747;SDS011;3918;42.564;23.164;2023-04-08T08:43:46;12.85;;;4.55;;
7747;SDS011;3918;42.564;23.164;2023-04-08T08:46:14;5.22;;;4.30;;
7747;SDS011;3918;42.564;23.164;2023-04-08T08:48:43;4.43;;;3.85;;
7747;SDS011;3918;42.564;23.164;2023-04-08T08:51:10;3.92;;;3.53;;
7747;SDS011;3918;42.564;23.164;2023-04-08T08:53:39;46.65;;;5.85;;
7747;SDS011;3918;42.564;23.164;2023-04-08T08:56:09;6.75;;;4.07;;
7747;SDS011;3918;42.564;23.164;2023-04-08T08:58:36;4.70;;;3.85;;
7747;SDS011;3918;42.564;23.164;2023-04-08T09:04:11;8.23;;;4.25;;
7747;SDS011;3918;42.564;23.164;2023-04-08T09:06:40;48.83;;;6.32;;
7747;SDS011;3918;42.564;23.164;2023-04-08T09:09:09;10.80;;;4.07;;
7747;SDS011;3918;42.564;23.164;2023-04-08T09:11:36;47.58;;;8.32;;
7747;SDS011;3918;42.564;23.164;2023-04-08T09:14:04;5.43;;;3.53;;
7747;SDS011;3918;42.564;23.164;2023-04-08T09:16:42;29.02;;;4.57;;
7747;SDS011;3918;42.564;23.164;2023-04-08T09:19:09;4.95;;;3.35;;
7747;SDS011;3918;42.564;23.164;2023-04-08T09:21:37;6.60;;;4.25;;
7747;SDS011;3918;42.564;23.164;2023-04-08T09:24:06;4.72;;;4.00;;
7747;SDS011;3918;42.564;23.164;2023-04-08T09:26:34;4.53;;;4.10;;
7747;SDS011;3918;42.564;23.164;2023-04-08T09:29:03;4.47;;;4.00;;
7747;SDS011;3918;42.564;23.164;2023-04-08T09:31:31;4.40;;;3.78;;
7747;SDS011;3918;42.564;23.164;2023-04-08T09:34:00;4.25;;;3.85;;
7747;SDS011;3918;42.564;23.164;2023-04-08T09:36:36;42.17;;;5.30;;
7747;SDS011;3918;42.564;23.164;2023-04-08T09:39:02;5.35;;;3.50;;
7747;SDS011;3918;42.564;23.164;2023-04-08T09:41:31;9.60;;;3.92;;
7747;SDS011;3918;42.564;23.164;2023-04-08T09:44:02;8.68;;;3.97;;
7747;SDS011;3918;42.564;23.164;2023-04-08T09:46:31;5.65;;;4.88;;
7747;SDS011;3918;42.564;23.164;2023-04-08T09:49:00;10.52;;;3.92;;
7747;SDS011;3918;42.564;23.164;2023-04-08T09:51:32;5.57;;;3.83;;
7747;SDS011;3918;42.564;23.164;2023-04-08T09:54:02;4.35;;;3.60;;
7747;SDS011;3918;42.564;23.164;2023-04-08T09:56:40;6.35;;;3.58;;
7747;SDS011;3918;42.564;23.164;2023-04-08T09:59:14;5.45;;;3.78;;
7747;SDS011;3918;42.564;23.164;2023-04-08T10:01:51;3.60;;;3.33;;
7747;SDS011;3918;42.564;23.164;2023-04-08T10:04:19;3.92;;;3.47;;
7747;SDS011;3918;42.564;23.164;2023-04-08T10:06:49;5.88;;;3.78;;
7747;SDS011;3918;42.564;23.164;2023-04-08T10:09:20;4.45;;;4.05;;
7747;SDS011;3918;42.564;23.164;2023-04-08T10:11:47;5.22;;;4.50;;
7747;SDS011;3918;42.564;23.164;2023-04-08T10:14:16;4.43;;;4.00;;
7747;SDS011;3918;42.564;23.164;2023-04-08T10:16:45;4.13;;;3.70;;
7747;SDS011;3918;42.564;23.164;2023-04-08T10:22:14;6.25;;;4.15;;
7747;SDS011;3918;42.564;23.164;2023-04-08T10:25:28;4.65;;;4.13;;
7747;SDS011;3918;42.564;23.164;2023-04-08T10:27:55;5.38;;;4.40;;
7747;SDS011;3918;42.564;23.164;2023-04-08T10:30:39;5.38;;;4.43;;
7747;SDS011;3918;42.564;23.164;2023-04-08T10:33:10;5.70;;;4.72;;
7747;SDS011;3918;42.564;23.164;2023-04-08T10:35:40;8.18;;;4.28;;
7747;SDS011;3918;42.564;23.164;2023-04-08T10:38:08;7.85;;;4.70;;
7747;SDS011;3918;42.564;23.164;2023-04-08T10:40:37;4.47;;;3.65;;
7747;SDS011;3918;42.564;23.164;2023-04-08T10:43:05;5.90;;;4.35;;
7747;SDS011;3918;42.564;23.164;2023-04-08T10:45:33;12.48;;;4.22;;
7747;SDS011;3918;42.564;23.164;2023-04-08T10:48:14;7.50;;;4.97;;
7747;SDS011;3918;42.564;23.164;2023-04-08T10:50:43;11.55;;;4.32;;
7747;SDS011;3918;42.564;23.164;2023-04-08T10:53:10;8.52;;;4.20;;
7747;SDS011;3918;42.564;23.164;2023-04-08T10:55:37;6.32;;;4.20;;
7747;SDS011;3918;42.564;23.164;2023-04-08T10:58:04;5.07;;;4.57;;
7747;SDS011;3918;42.564;23.164;2023-04-08T11:00:32;7.90;;;4.75;;
7747;SDS011;3918;42.564;23.164;2023-04-08T11:03:01;9.00;;;4.88;;
7747;SDS011;3918;42.564;23.164;2023-04-08T11:05:30;5.00;;;4.50;;
7747;SDS011;3918;42.564;23.164;2023-04-08T11:07:57;6.05;;;4.38;;
7747;SDS011;3918;42.564;23.164;2023-04-08T11:10:24;5.72;;;4.82;;
7747;SDS011;3918;42.564;23.164;2023-04-08T11:12:51;8.68;;;4.40;;
7747;SDS011;3918;42.564;23.164;2023-04-08T11:15:19;6.28;;;4.40;;
7747;SDS011;3918;42.564;23.164;2023-04-08T11:17:46;3.88;;;3.58;;
7747;SDS011;3918;42.564;23.164;2023-04-08T11:20:13;6.78;;;4.28;;
7747;SDS011;3918;42.564;23.164;2023-04-08T11:22:42;5.03;;;4.57;;
7747;SDS011;3918;42.564;23.164;2023-04-08T11:25:09;4.47;;;4.07;;
7747;SDS011;3918;42.564;23.164;2023-04-08T11:27:37;8.40;;;4.00;;
7747;SDS011;3918;42.564;23.164;2023-04-08T11:30:05;4.28;;;3.58;;
7747;SDS011;3918;42.564;23.164;2023-04-08T11:32:34;5.50;;;3.97;;
7747;SDS011;3918;42.564;23.164;2023-04-08T11:35:03;6.03;;;3.53;;
7747;SDS011;3918;42.564;23.164;2023-04-08T11:37:35;4.22;;;3.92;;
7747;SDS011;3918;42.564;23.164;2023-04-08T11:40:09;4.43;;;3.95;;
7747;SDS011;3918;42.564;23.164;2023-04-08T11:42:37;8.27;;;4.68;;
7747;SDS011;3918;42.564;23.164;2023-04-08T11:45:11;3.65;;;3.35;;
7747;SDS011;3918;42.564;23.164;2023-04-08T11:47:38;9.60;;;3.65;;
7747;SDS011;3918;42.564;23.164;2023-04-08T11:50:06;4.10;;;3.42;;
7747;SDS011;3918;42.564;23.164;2023-04-08T11:52:40;10.98;;;4.00;;
7747;SDS011;3918;42.564;23.164;2023-04-08T11:55:21;6.70;;;4.07;;
7747;SDS011;3918;42.564;23.164;2023-04-08T11:57:48;4.35;;;3.95;;
7747;SDS011;3918;42.564;23.164;2023-04-08T12:00:16;3.78;;;3.47;;
7747;SDS011;3918;42.564;23.164;2023-04-08T12:02:43;7.40;;;3.40;;
7747;SDS011;3918;42.564;23.164;2023-04-08T12:05:10;5.35;;;4.28;;
7747;SDS011;3918;42.564;23.164;2023-04-08T12:07:37;9.00;;;3.97;;
7747;SDS011;3918;42.564;23.164;2023-04-08T12:10:04;5.88;;;4.47;;
7747;SDS011;3918;42.564;23.164;2023-04-08T12:12:33;4.97;;;4.43;;
7747;SDS011;3918;42.564;23.164;2023-04-08T12:15:00;6.68;;;5.00;;
7747;SDS011;3918;42.564;23.164;2023-04-08T12:17:27;6.15;;;4.10;;
7747;SDS011;3918;42.564;23.164;2023-04-08T12:19:54;34.55;;;5.57;;
7747;SDS011;3918;42.564;23.164;2023-04-08T12:22:21;5.75;;;4.50;;
7747;SDS011;3918;42.564;23.164;2023-04-08T12:24:48;11.82;;;4.38;;
7747;SDS011;3918;42.564;23.164;2023-04-08T12:27:15;11.25;;;3.85;;
7747;SDS011;3918;42.564;23.164;2023-04-08T12:29:43;13.02;;;3.60;;
7747;SDS011;3918;42.564;23.164;2023-04-08T12:32:10;4.10;;;3.35;;
7747;SDS011;3918;42.564;23.164;2023-04-08T12:34:37;4.25;;;3.47;;
7747;SDS011;3918;42.564;23.164;2023-04-08T12:37:04;10.70;;;4.38;;
7747;SDS011;3918;42.564;23.164;2023-04-08T12:39:31;9.82;;;4.68;;
7747;SDS011;3918;42.564;23.164;2023-04-08T12:41:58;11.15;;;4.78;;
7747;SDS011;3918;42.564;23.164;2023-04-08T12:44:25;41.60;;;6.15;;
7747;SDS011;3918;42.564;23.164;2023-04-08T12:46:53;19.13;;;6.50;;
7747;SDS011;3918;42.564;23.164;2023-04-08T12:49:19;6.65;;;4.75;;
7747;SDS011;3918;42.564;23.164;2023-04-08T12:51:46;10.15;;;5.68;;
7747;SDS011;3918;42.564;23.164;2023-04-08T12:54:13;8.38;;;4.15;;
7747;SDS011;3918;42.564;23.164;2023-04-08T12:56:40;7.82;;;4.35;;
7747;SDS011;3918;42.564;23.164;2023-04-08T12:59:08;11.07;;;5.13;;
7747;SDS011;3918;42.564;23.164;2023-04-08T13:01:35;4.30;;;3.17;;
7747;SDS011;3918;42.564;23.164;2023-04-08T13:04:03;4.75;;;3.35;;
7747;SDS011;3918;42.564;23.164;2023-04-08T13:06:30;3.25;;;2.92;;
7747;SDS011;3918;42.564;23.164;2023-04-08T13:08:57;3.97;;;3.30;;
7747;SDS011;3918;42.564;23.164;2023-04-08T13:11:24;3.80;;;3.50;;
7747;SDS011;3918;42.564;23.164;2023-04-08T13:13:51;6.80;;;3.00;;
7747;SDS011;3918;42.564;23.164;2023-04-08T13:16:17;5.32;;;3.53;;
7747;SDS011;3918;42.564;23.164;2023-04-08T13:18:45;9.80;;;3.58;;
7747;SDS011;3918;42.564;23.164;2023-04-08T13:21:13;7.43;;;2.92;;
7747;SDS011;3918;42.564;23.164;2023-04-08T13:23:39;3.90;;;3.47;;
7747;SDS011;3918;42.564;23.164;2023-04-08T13:26:11;3.55;;;3.00;;
7747;SDS011;3918;42.564;23.164;2023-04-08T13:29:04;7.78;;;3.50;;
7747;SDS011;3918;42.564;23.164;2023-04-08T13:31:36;4.55;;;3.03;;
7747;SDS011;3918;42.564;23.164;2023-04-08T13:34:04;8.27;;;3.53;;
7747;SDS011;3918;42.564;23.164;2023-04-08T13:36:36;11.98;;;4.03;;
7747;SDS011;3918;42.564;23.164;2023-04-08T13:39:08;7.00;;;3.53;;
7747;SDS011;3918;42.564;23.164;2023-04-08T13:41:35;9.55;;;3.58;;
7747;SDS011;3918;42.564;23.164;2023-04-08T13:44:02;4.60;;;3.33;;
7747;SDS011;3918;42.564;23.164;2023-04-08T13:46:29;11.10;;;4.05;;
7747;SDS011;3918;42.564;23.164;2023-04-08T13:48:56;14.88;;;5.43;;
7747;SDS011;3918;42.564;23.164;2023-04-08T13:51:23;21.52;;;5.80;;
7747;SDS011;3918;42.564;23.164;2023-04-08T13:53:52;5.65;;;5.15;;
7747;SDS011;3918;42.564;23.164;2023-04-08T13:56:19;10.00;;;5.70;;
7747;SDS011;3918;42.564;23.164;2023-04-08T13:58:46;9.65;;;6.60;;
7747;SDS011;3918;42.564;23.164;2023-04-08T14:01:13;19.65;;;8.60;;
7747;SDS011;3918;42.564;23.164;2023-04-08T14:03:39;12.48;;;8.05;;
7747;SDS011;3918;42.564;23.164;2023-04-08T14:06:06;16.20;;;7.55;;
7747;SDS011;3918;42.564;23.164;2023-04-08T14:08:33;16.58;;;8.10;;
7747;SDS011;3918;42.564;23.164;2023-04-08T14:11:01;14.88;;;6.35;;
7747;SDS011;3918;42.564;23.164;2023-04-08T14:13:28;13.27;;;6.00;;
7747;SDS011;3918;42.564;23.164;2023-04-08T14:15:56;10.90;;;6.28;;
7747;SDS011;3918;42.564;23.164;2023-04-08T14:18:25;9.80;;;5.65;;
7747;SDS011;3918;42.564;23.164;2023-04-08T14:20:53;11.10;;;5.70;;
7747;SDS011;3918;42.564;23.164;2023-04-08T14:23:20;17.90;;;5.63;;
7747;SDS011;3918;42.564;23.164;2023-04-08T14:25:47;10.80;;;5.75;;
7747;SDS011;3918;42.564;23.164;2023-04-08T14:28:15;6.70;;;5.90;;
7747;SDS011;3918;42.564;23.164;2023-04-08T14:30:42;6.50;;;5.10;;
7747;SDS011;3918;42.564;23.164;2023-04-08T14:33:09;6.70;;;5.10;;
7747;SDS011;3918;42.564;23.164;2023-04-08T14:35:36;8.57;;;5.35;;
7747;SDS011;3918;42.564;23.164;2023-04-08T14:38:02;10.32;;;5.10;;
7747;SDS011;3918;42.564;23.164;2023-04-08T14:40:29;7.15;;;5.50;;
7747;SDS011;3918;42.564;23.164;2023-04-08T14:42:56;6.00;;;4.15;;
7747;SDS011;3918;42.564;23.164;2023-04-08T14:45:27;5.93;;;5.25;;
7747;SDS011;3918;42.564;23.164;2023-04-08T14:47:54;7.05;;;5.28;;
7747;SDS011;3918;42.564;23.164;2023-04-08T14:50:21;9.07;;;5.35;;
7747;SDS011;3918;42.564;23.164;2023-04-08T14:52:48;7.07;;;5.75;;
7747;SDS011;3918;42.564;23.164;2023-04-08T14:55:14;8.30;;;6.63;;
7747;SDS011;3918;42.564;23.164;2023-04-08T14:57:42;8.85;;;6.13;;
7747;SDS011;3918;42.564;23.164;2023-04-08T15:00:09;8.95;;;7.03;;
7747;SDS011;3918;42.564;23.164;2023-04-08T15:02:38;9.57;;;6.93;;
7747;SDS011;3918;42.564;23.164;2023-04-08T15:05:05;8.32;;;6.18;;
7747;SDS011;3918;42.564;23.164;2023-04-08T15:07:32;6.80;;;5.68;;
7747;SDS011;3918;42.564;23.164;2023-04-08T15:09:59;7.88;;;5.55;;
7747;SDS011;3918;42.564;23.164;2023-04-08T15:12:26;7.65;;;5.50;;
7747;SDS011;3918;42.564;23.164;2023-04-08T15:14:53;8.73;;;6.45;;
7747;SDS011;3918;42.564;23.164;2023-04-08T15:17:20;6.35;;;5.30;;
7747;SDS011;3918;42.564;23.164;2023-04-08T15:19:48;9.77;;;7.10;;
7747;SDS011;3918;42.564;23.164;2023-04-08T15:22:15;9.10;;;6.10;;
7747;SDS011;3918;42.564;23.164;2023-04-08T15:24:41;7.35;;;5.82;;
7747;SDS011;3918;42.564;23.164;2023-04-08T15:27:08;7.32;;;6.10;;
7747;SDS011;3918;42.564;23.164;2023-04-08T15:29:35;7.55;;;5.85;;
7747;SDS011;3918;42.564;23.164;2023-04-08T15:32:02;7.90;;;5.65;;
7747;SDS011;3918;42.564;23.164;2023-04-08T15:34:28;6.97;;;5.38;;
7747;SDS011;3918;42.564;23.164;2023-04-08T15:36:57;6.80;;;5.65;;
7747;SDS011;3918;42.564;23.164;2023-04-08T15:39:26;10.82;;;5.55;;
7747;SDS011;3918;42.564;23.164;2023-04-08T15:41:52;9.52;;;6.03;;
7747;SDS011;3918;42.564;23.164;2023-04-08T15:44:20;11.80;;;6.75;;
7747;SDS011;3918;42.564;23.164;2023-04-08T15:46:47;10.52;;;7.32;;
7747;SDS011;3918;42.564;23.164;2023-04-08T15:49:13;10.07;;;7.00;;
7747;SDS011;3918;42.564;23.164;2023-04-08T15:51:40;8.15;;;6.60;;
7747;SDS011;3918;42.564;23.164;2023-04-08T15:54:10;9.88;;;7.75;;
7747;SDS011;3918;42.564;23.164;2023-04-08T15:56:36;11.38;;;8.15;;
7747;SDS011;3918;42.564;23.164;2023-04-08T15:59:03;8.50;;;7.15;;
7747;SDS011;3918;42.564;23.164;2023-04-08T16:01:30;7.70;;;7.00;;
7747;SDS011;3918;42.564;23.164;2023-04-08T16:03:57;10.20;;;7.05;;
7747;SDS011;3918;42.564;23.164;2023-04-08T16:06:23;9.23;;;7.18;;
7747;SDS011;3918;42.564;23.164;2023-04-08T16:08:50;9.30;;;8.10;;
7747;SDS011;3918;42.564;23.164;2023-04-08T16:11:18;10.68;;;8.60;;
7747;SDS011;3918;42.564;23.164;2023-04-08T16:13:46;10.23;;;8.45;;
7747;SDS011;3918;42.564;23.164;2023-04-08T16:16:12;16.42;;;11.40;;
7747;SDS011;3918;42.564;23.164;2023-04-08T16:18:40;17.98;;;12.27;;
7747;SDS011;3918;42.564;23.164;2023-04-08T16:21:07;17.95;;;11.98;;
7747;SDS011;3918;42.564;23.164;2023-04-08T16:23:34;13.40;;;9.35;;
7747;SDS011;3918;42.564;23.164;2023-04-08T16:26:02;13.00;;;9.35;;
7747;SDS011;3918;42.564;23.164;2023-04-08T16:28:31;12.25;;;8.45;;
7747;SDS011;3918;42.564;23.164;2023-04-08T16:30:57;9.32;;;7.38;;
7747;SDS011;3918;42.564;23.164;2023-04-08T16:33:24;8.40;;;6.93;;
7747;SDS011;3918;42.564;23.164;2023-04-08T16:35:54;7.93;;;6.93;;
7747;SDS011;3918;42.564;23.164;2023-04-08T16:38:20;9.75;;;7.82;;
7747;SDS011;3918;42.564;23.164;2023-04-08T16:40:48;8.10;;;6.53;;
7747;SDS011;3918;42.564;23.164;2023-04-08T16:43:14;7.45;;;6.65;;
7747;SDS011;3918;42.564;23.164;2023-04-08T16:45:42;9.57;;;8.23;;
7747;SDS011;3918;42.564;23.164;2023-04-08T16:48:09;13.18;;;10.40;;
7747;SDS011;3918;42.564;23.164;2023-04-08T16:50:36;17.45;;;12.45;;
7747;SDS011;3918;42.564;23.164;2023-04-08T16:53:04;10.73;;;8.98;;
7747;SDS011;3918;42.564;23.164;2023-04-08T16:55:31;8.18;;;7.38;;
7747;SDS011;3918;42.564;23.164;2023-04-08T16:57:58;8.20;;;7.15;;
7747;SDS011;3918;42.564;23.164;2023-04-08T17:00:25;6.88;;;6.25;;
7747;SDS011;3918;42.564;23.164;2023-04-08T17:02:53;8.55;;;7.65;;
7747;SDS011;3918;42.564;23.164;2023-04-08T17:05:21;8.18;;;7.28;;
7747;SDS011;3918;42.564;23.164;2023-04-08T17:07:48;8.02;;;6.85;;
7747;SDS011;3918;42.564;23.164;2023-04-08T17:10:15;7.72;;;6.93;;
7747;SDS011;3918;42.564;23.164;2023-04-08T17:12:42;7.40;;;6.70;;
7747;SDS011;3918;42.564;23.164;2023-04-08T17:15:09;8.40;;;7.57;;
7747;SDS011;3918;42.564;23.164;2023-04-08T17:17:37;8.48;;;7.60;;
7747;SDS011;3918;42.564;23.164;2023-04-08T17:20:06;8.43;;;7.63;;
7747;SDS011;3918;42.564;23.164;2023-04-08T17:22:33;8.50;;;7.38;;
7747;SDS011;3918;42.564;23.164;2023-04-08T17:25:00;8.27;;;7.45;;
7747;SDS011;3918;42.564;23.164;2023-04-08T17:27:27;9.07;;;7.95;;
7747;SDS011;3918;42.564;23.164;2023-04-08T17:29:54;9.50;;;8.02;;
7747;SDS011;3918;42.564;23.164;2023-04-08T17:32:22;8.20;;;7.40;;
7747;SDS011;3918;42.564;23.164;2023-04-08T17:34:49;9.07;;;7.97;;
7747;SDS011;3918;42.564;23.164;2023-04-08T17:37:17;10.95;;;9.00;;
7747;SDS011;3918;42.564;23.164;2023-04-08T17:39:44;12.23;;;9.23;;
7747;SDS011;3918;42.564;23.164;2023-04-08T17:42:11;9.70;;;8.63;;
7747;SDS011;3918;42.564;23.164;2023-04-08T17:44:38;11.07;;;9.35;;
7747;SDS011;3918;42.564;23.164;2023-04-08T17:47:06;12.43;;;8.35;;
7747;SDS011;3918;42.564;23.164;2023-04-08T17:49:33;14.57;;;9.38;;
7747;SDS011;3918;42.564;23.164;2023-04-08T17:52:00;9.48;;;8.25;;
7747;SDS011;3918;42.564;23.164;2023-04-08T17:54:28;9.32;;;8.32;;
7747;SDS011;3918;42.564;23.164;2023-04-08T17:56:58;14.00;;;9.70;;
7747;SDS011;3918;42.564;23.164;2023-04-08T17:59:25;10.40;;;8.18;;
7747;SDS011;3918;42.564;23.164;2023-04-08T18:01:52;11.70;;;10.05;;
7747;SDS011;3918;42.564;23.164;2023-04-08T18:04:19;11.93;;;9.40;;
7747;SDS011;3918;42.564;23.164;2023-04-08T18:06:46;9.60;;;8.65;;
7747;SDS011;3918;42.564;23.164;2023-04-08T18:09:13;10.38;;;8.77;;
7747;SDS011;3918;42.564;23.164;2023-04-08T18:11:41;10.90;;;9.35;;
7747;SDS011;3918;42.564;23.164;2023-04-08T18:14:08;12.50;;;8.70;;
7747;SDS011;3918;42.564;23.164;2023-04-08T18:16:35;11.68;;;9.27;;
7747;SDS011;3918;42.564;23.164;2023-04-08T18:19:01;10.57;;;9.48;;
7747;SDS011;3918;42.564;23.164;2023-04-08T18:21:31;10.55;;;9.40;;
7747;SDS011;3918;42.564;23.164;2023-04-08T18:23:58;11.30;;;9.32;;
7747;SDS011;3918;42.564;23.164;2023-04-08T18:26:26;10.70;;;9.55;;
7747;SDS011;3918;42.564;23.164;2023-04-08T18:28:54;11.80;;;9.60;;
7747;SDS011;3918;42.564;23.164;2023-04-08T18:31:21;13.90;;;10.93;;
7747;SDS011;3918;42.564;23.164;2023-04-08T18:33:48;13.82;;;9.90;;
7747;SDS011;3918;42.564;23.164;2023-04-08T18:36:15;11.45;;;9.20;;
7747;SDS011;3918;42.564;23.164;2023-04-08T18:38:42;11.48;;;9.48;;
7747;SDS011;3918;42.564;23.164;2023-04-08T18:41:09;11.45;;;9.68;;
7747;SDS011;3918;42.564;23.164;2023-04-08T18:43:37;10.52;;;9.13;;
7747;SDS011;3918;42.564;23.164;2023-04-08T18:46:05;10.32;;;9.30;;
7747;SDS011;3918;42.564;23.164;2023-04-08T18:48:32;11.95;;;9.60;;
7747;SDS011;3918;42.564;23.164;2023-04-08T18:50:59;15.43;;;10.93;;
7747;SDS011;3918;42.564;23.164;2023-04-08T18:53:26;17.23;;;13.40;;
7747;SDS011;3918;42.564;23.164;2023-04-08T18:55:53;17.23;;;12.73;;
7747;SDS011;3918;42.564;23.164;2023-04-08T18:58:20;17.52;;;12.30;;
7747;SDS011;3918;42.564;23.164;2023-04-08T19:00:47;23.42;;;16.70;;
